Uhta, Russia
Current Conditions -  °F | °C
As of 2:00 PM on Friday 28 Nov 2014 (Local Time) from UUYY Reporting Station
Snow Showers Snow Showers  
Wind Chill: 25°   Ceiling: 2000
Heat Index: 30°   Visibility: 6mi
Dew Point: 27°   Wind: 4mph
Humidity: 86%   Direction: NA
Pressure: 30.36"   Gusts: NA
Location:  63.56°N, 53.69°E
Report Text: UUYY 281100Z VRB02MPS 9000 -SHSN SCT008 BKN020CB OVC066 M01/M03 Q1028 TEMPO 1000 SHSN 1945//45 RMK QFE762/1017
Loading
Personal Weather Stations






























Interactive Weather Map New forecast layout! Learn more

10-Day Weather Forecast

Advertisements
Track Severe Weather on mobile